sensor_id;sensor_type;location;lat;lon;timestamp;P1;durP1;ratioP1;P2;durP2;ratioP2
50605;SDS011;36557;53.572;10.170;2022-09-20T00:01:01;490.90;;;460.05;;
50605;SDS011;36557;53.572;10.170;2022-09-20T00:03:28;579.90;;;539.83;;
50605;SDS011;36557;53.572;10.170;2022-09-20T00:05:54;548.38;;;510.42;;
50605;SDS011;36557;53.572;10.170;2022-09-20T00:08:24;584.28;;;543.35;;
50605;SDS011;36557;53.572;10.170;2022-09-20T00:10:50;568.97;;;528.67;;
50605;SDS011;36557;53.572;10.170;2022-09-20T00:13:17;578.83;;;537.80;;
50605;SDS011;36557;53.572;10.170;2022-09-20T00:15:44;479.30;;;447.55;;
50605;SDS011;36557;53.572;10.170;2022-09-20T00:18:10;552.63;;;513.90;;
50605;SDS011;36557;53.572;10.170;2022-09-20T00:20:43;538.85;;;501.15;;
50605;SDS011;36557;53.572;10.170;2022-09-20T00:23:10;535.65;;;497.83;;
50605;SDS011;36557;53.572;10.170;2022-09-20T00:25:35;528.88;;;492.60;;
50605;SDS011;36557;53.572;10.170;2022-09-20T00:28:01;532.03;;;495.65;;
50605;SDS011;36557;53.572;10.170;2022-09-20T00:30:27;449.38;;;420.80;;
50605;SDS011;36557;53.572;10.170;2022-09-20T00:32:53;439.13;;;411.20;;
50605;SDS011;36557;53.572;10.170;2022-09-20T00:35:18;427.73;;;401.30;;
50605;SDS011;36557;53.572;10.170;2022-09-20T00:37:44;450.38;;;421.38;;
50605;SDS011;36557;53.572;10.170;2022-09-20T00:40:14;532.58;;;498.45;;
50605;SDS011;36557;53.572;10.170;2022-09-20T00:42:44;525.15;;;490.70;;
50605;SDS011;36557;53.572;10.170;2022-09-20T00:47:43;542.25;;;507.27;;
50605;SDS011;36557;53.572;10.170;2022-09-20T00:55:46;562.22;;;525.00;;
50605;SDS011;36557;53.572;10.170;2022-09-20T00:58:16;567.38;;;529.75;;
50605;SDS011;36557;53.572;10.170;2022-09-20T01:00:44;563.05;;;525.20;;
50605;SDS011;36557;53.572;10.170;2022-09-20T01:03:11;551.78;;;514.17;;
50605;SDS011;36557;53.572;10.170;2022-09-20T01:05:41;495.52;;;461.95;;
50605;SDS011;36557;53.572;10.170;2022-09-20T01:08:08;535.70;;;498.38;;
50605;SDS011;36557;53.572;10.170;2022-09-20T01:10:34;482.75;;;450.50;;
50605;SDS011;36557;53.572;10.170;2022-09-20T01:13:00;535.05;;;497.52;;
50605;SDS011;36557;53.572;10.170;2022-09-20T01:15:26;526.10;;;489.30;;
50605;SDS011;36557;53.572;10.170;2022-09-20T01:17:55;518.25;;;482.05;;
50605;SDS011;36557;53.572;10.170;2022-09-20T01:20:34;477.63;;;444.33;;
50605;SDS011;36557;53.572;10.170;2022-09-20T01:26:01;426.15;;;397.75;;
50605;SDS011;36557;53.572;10.170;2022-09-20T01:28:46;415.70;;;388.98;;
50605;SDS011;36557;53.572;10.170;2022-09-20T01:31:15;508.38;;;472.90;;
50605;SDS011;36557;53.572;10.170;2022-09-20T01:33:59;499.85;;;464.88;;
50605;SDS011;36557;53.572;10.170;2022-09-20T01:36:52;425.58;;;397.17;;
50605;SDS011;36557;53.572;10.170;2022-09-20T01:42:15;527.30;;;491.13;;
50605;SDS011;36557;53.572;10.170;2022-09-20T01:50:14;463.98;;;432.52;;
50605;SDS011;36557;53.572;10.170;2022-09-20T02:23:04;544.50;;;505.35;;
50605;SDS011;36557;53.572;10.170;2022-09-20T02:25:52;532.67;;;494.70;;
50605;SDS011;36557;53.572;10.170;2022-09-20T02:31:15;393.52;;;367.70;;
50605;SDS011;36557;53.572;10.170;2022-09-20T02:34:09;396.17;;;369.20;;
50605;SDS011;36557;53.572;10.170;2022-09-20T02:39:35;407.17;;;380.52;;
50605;SDS011;36557;53.572;10.170;2022-09-20T02:42:40;442.60;;;412.08;;
50605;SDS011;36557;53.572;10.170;2022-09-20T02:45:24;363.10;;;339.50;;
50605;SDS011;36557;53.572;10.170;2022-09-20T02:48:18;381.02;;;355.95;;
50605;SDS011;36557;53.572;10.170;2022-09-20T02:50:57;405.75;;;378.00;;
50605;SDS011;36557;53.572;10.170;2022-09-20T03:24:05;492.17;;;457.58;;
50605;SDS011;36557;53.572;10.170;2022-09-20T03:26:46;519.80;;;482.85;;
50605;SDS011;36557;53.572;10.170;2022-09-20T03:32:39;417.70;;;389.90;;
50605;SDS011;36557;53.572;10.170;2022-09-20T03:41:00;537.38;;;499.45;;
50605;SDS011;36557;53.572;10.170;2022-09-20T03:57:42;557.63;;;521.67;;
50605;SDS011;36557;53.572;10.170;2022-09-20T04:03:02;516.10;;;483.73;;
50605;SDS011;36557;53.572;10.170;2022-09-20T04:08:30;565.47;;;528.63;;
50605;SDS011;36557;53.572;10.170;2022-09-20T04:11:24;553.42;;;517.30;;
50605;SDS011;36557;53.572;10.170;2022-09-20T04:16:45;570.40;;;533.25;;
50605;SDS011;36557;53.572;10.170;2022-09-20T04:19:23;554.70;;;518.80;;
50605;SDS011;36557;53.572;10.170;2022-09-20T04:21:57;537.53;;;502.98;;
50605;SDS011;36557;53.572;10.170;2022-09-20T04:24:30;561.55;;;525.35;;
50605;SDS011;36557;53.572;10.170;2022-09-20T04:32:29;549.75;;;513.83;;
50605;SDS011;36557;53.572;10.170;2022-09-20T04:35:28;578.47;;;540.87;;
50605;SDS011;36557;53.572;10.170;2022-09-20T04:38:23;531.30;;;496.27;;
50605;SDS011;36557;53.572;10.170;2022-09-20T04:48:45;532.45;;;498.40;;
50605;SDS011;36557;53.572;10.170;2022-09-20T05:17:23;571.67;;;534.10;;
50605;SDS011;36557;53.572;10.170;2022-09-20T05:28:05;573.08;;;534.90;;
50605;SDS011;36557;53.572;10.170;2022-09-20T05:36:25;605.05;;;564.30;;
50605;SDS011;36557;53.572;10.170;2022-09-20T05:39:25;594.00;;;553.92;;
50605;SDS011;36557;53.572;10.170;2022-09-20T05:41:58;609.47;;;567.60;;
50605;SDS011;36557;53.572;10.170;2022-09-20T05:58:14;678.95;;;633.55;;
50605;SDS011;36557;53.572;10.170;2022-09-20T06:00:52;702.92;;;655.58;;
50605;SDS011;36557;53.572;10.170;2022-09-20T06:06:09;673.45;;;626.50;;
50605;SDS011;36557;53.572;10.170;2022-09-20T06:08:58;649.45;;;603.70;;
50605;SDS011;36557;53.572;10.170;2022-09-20T06:16:41;709.63;;;661.08;;
50605;SDS011;36557;53.572;10.170;2022-09-20T06:19:21;685.60;;;638.67;;
50605;SDS011;36557;53.572;10.170;2022-09-20T06:22:27;688.45;;;638.97;;
50605;SDS011;36557;53.572;10.170;2022-09-20T06:27:37;636.08;;;590.22;;
50605;SDS011;36557;53.572;10.170;2022-09-20T06:30:20;657.00;;;607.05;;
50605;SDS011;36557;53.572;10.170;2022-09-20T06:35:35;650.67;;;602.00;;
50605;SDS011;36557;53.572;10.170;2022-09-20T06:41:30;595.47;;;552.60;;
50605;SDS011;36557;53.572;10.170;2022-09-20T06:43:58;681.78;;;630.63;;
50605;SDS011;36557;53.572;10.170;2022-09-20T06:46:26;630.28;;;583.38;;
50605;SDS011;36557;53.572;10.170;2022-09-20T06:48:53;638.20;;;591.42;;
50605;SDS011;36557;53.572;10.170;2022-09-20T06:51:19;622.05;;;576.10;;
50605;SDS011;36557;53.572;10.170;2022-09-20T06:53:46;679.05;;;628.10;;
50605;SDS011;36557;53.572;10.170;2022-09-20T06:56:16;662.40;;;613.25;;
50605;SDS011;36557;53.572;10.170;2022-09-20T06:58:44;669.78;;;620.35;;
50605;SDS011;36557;53.572;10.170;2022-09-20T07:01:11;661.83;;;613.38;;
50605;SDS011;36557;53.572;10.170;2022-09-20T07:03:38;635.38;;;590.42;;
50605;SDS011;36557;53.572;10.170;2022-09-20T07:06:04;643.22;;;597.58;;
50605;SDS011;36557;53.572;10.170;2022-09-20T07:08:30;669.33;;;619.63;;
50605;SDS011;36557;53.572;10.170;2022-09-20T07:10:56;658.28;;;608.70;;
50605;SDS011;36557;53.572;10.170;2022-09-20T07:13:21;697.72;;;644.83;;
50605;SDS011;36557;53.572;10.170;2022-09-20T07:15:48;661.72;;;613.45;;
50605;SDS011;36557;53.572;10.170;2022-09-20T07:18:14;671.97;;;623.35;;
50605;SDS011;36557;53.572;10.170;2022-09-20T07:20:40;661.35;;;612.75;;
50605;SDS011;36557;53.572;10.170;2022-09-20T07:23:06;691.40;;;642.33;;
50605;SDS011;36557;53.572;10.170;2022-09-20T07:25:32;675.55;;;625.65;;
50605;SDS011;36557;53.572;10.170;2022-09-20T07:27:58;673.58;;;624.22;;
50605;SDS011;36557;53.572;10.170;2022-09-20T07:30:24;646.03;;;598.20;;
50605;SDS011;36557;53.572;10.170;2022-09-20T07:32:49;691.58;;;642.72;;
50605;SDS011;36557;53.572;10.170;2022-09-20T07:35:15;651.33;;;602.15;;
50605;SDS011;36557;53.572;10.170;2022-09-20T07:37:41;671.47;;;623.13;;
50605;SDS011;36557;53.572;10.170;2022-09-20T07:40:07;610.92;;;562.70;;
50605;SDS011;36557;53.572;10.170;2022-09-20T07:42:34;628.47;;;580.28;;
50605;SDS011;36557;53.572;10.170;2022-09-20T07:45:00;636.28;;;589.33;;
50605;SDS011;36557;53.572;10.170;2022-09-20T07:47:29;641.50;;;592.17;;
50605;SDS011;36557;53.572;10.170;2022-09-20T07:49:59;632.50;;;583.92;;
50605;SDS011;36557;53.572;10.170;2022-09-20T07:52:25;646.90;;;596.67;;
50605;SDS011;36557;53.572;10.170;2022-09-20T07:54:51;663.90;;;611.97;;
50605;SDS011;36557;53.572;10.170;2022-09-20T07:57:17;626.45;;;578.78;;
50605;SDS011;36557;53.572;10.170;2022-09-20T07:59:43;645.67;;;598.40;;
50605;SDS011;36557;53.572;10.170;2022-09-20T08:02:12;725.70;;;669.90;;
50605;SDS011;36557;53.572;10.170;2022-09-20T08:04:39;638.63;;;592.03;;
50605;SDS011;36557;53.572;10.170;2022-09-20T08:07:04;698.22;;;645.03;;
50605;SDS011;36557;53.572;10.170;2022-09-20T08:09:30;662.35;;;614.70;;
50605;SDS011;36557;53.572;10.170;2022-09-20T08:11:56;633.10;;;588.72;;
50605;SDS011;36557;53.572;10.170;2022-09-20T08:14:22;685.70;;;635.63;;
50605;SDS011;36557;53.572;10.170;2022-09-20T08:16:48;659.50;;;611.33;;
50605;SDS011;36557;53.572;10.170;2022-09-20T08:21:45;682.20;;;633.53;;
50605;SDS011;36557;53.572;10.170;2022-09-20T08:24:12;664.50;;;616.97;;
50605;SDS011;36557;53.572;10.170;2022-09-20T08:26:38;696.67;;;645.63;;
50605;SDS011;36557;53.572;10.170;2022-09-20T08:29:04;729.30;;;673.03;;
50605;SDS011;36557;53.572;10.170;2022-09-20T08:31:30;735.33;;;679.55;;
50605;SDS011;36557;53.572;10.170;2022-09-20T08:34:00;706.17;;;651.67;;
50605;SDS011;36557;53.572;10.170;2022-09-20T08:36:29;687.20;;;636.97;;
50605;SDS011;36557;53.572;10.170;2022-09-20T08:38:56;620.47;;;575.80;;
50605;SDS011;36557;53.572;10.170;2022-09-20T08:44:02;532.30;;;496.75;;
50605;SDS011;36557;53.572;10.170;2022-09-20T08:46:32;508.23;;;473.02;;
50605;SDS011;36557;53.572;10.170;2022-09-20T08:49:16;539.13;;;497.15;;
50605;SDS011;36557;53.572;10.170;2022-09-20T08:51:49;621.42;;;574.90;;
50605;SDS011;36557;53.572;10.170;2022-09-20T08:54:16;545.33;;;507.85;;
50605;SDS011;36557;53.572;10.170;2022-09-20T08:56:42;550.17;;;511.70;;
50605;SDS011;36557;53.572;10.170;2022-09-20T08:59:15;562.17;;;524.22;;
50605;SDS011;36557;53.572;10.170;2022-09-20T09:01:44;545.20;;;507.67;;
50605;SDS011;36557;53.572;10.170;2022-09-20T09:04:12;591.70;;;547.55;;
50605;SDS011;36557;53.572;10.170;2022-09-20T09:06:42;638.53;;;589.35;;
50605;SDS011;36557;53.572;10.170;2022-09-20T09:09:19;488.55;;;458.77;;
50605;SDS011;36557;53.572;10.170;2022-09-20T09:11:50;617.40;;;568.60;;
50605;SDS011;36557;53.572;10.170;2022-09-20T09:14:28;627.78;;;580.58;;
50605;SDS011;36557;53.572;10.170;2022-09-20T09:17:16;556.75;;;514.38;;
50605;SDS011;36557;53.572;10.170;2022-09-20T09:19:54;664.33;;;614.70;;
50605;SDS011;36557;53.572;10.170;2022-09-20T09:28:21;573.17;;;526.25;;
50605;SDS011;36557;53.572;10.170;2022-09-20T09:30:40;500.00;;;462.50;;
50605;SDS011;36557;53.572;10.170;2022-09-20T09:36:12;492.38;;;456.92;;
50605;SDS011;36557;53.572;10.170;2022-09-20T09:38:41;540.33;;;498.98;;
50605;SDS011;36557;53.572;10.170;2022-09-20T09:44:32;585.75;;;540.08;;
50605;SDS011;36557;53.572;10.170;2022-09-20T09:46:44;644.95;;;593.88;;
50605;SDS011;36557;53.572;10.170;2022-09-20T09:49:14;608.08;;;563.20;;
50605;SDS011;36557;53.572;10.170;2022-09-20T09:54:40;391.55;;;366.00;;
50605;SDS011;36557;53.572;10.170;2022-09-20T10:02:28;564.20;;;516.65;;
50605;SDS011;36557;53.572;10.170;2022-09-20T10:13:33;373.77;;;348.77;;
50605;SDS011;36557;53.572;10.170;2022-09-20T10:16:13;446.17;;;412.15;;
50605;SDS011;36557;53.572;10.170;2022-09-20T10:18:56;451.17;;;417.20;;
50605;SDS011;36557;53.572;10.170;2022-09-20T10:25:00;448.33;;;416.97;;
50605;SDS011;36557;53.572;10.170;2022-09-20T10:32:41;543.63;;;495.83;;
50605;SDS011;36557;53.572;10.170;2022-09-20T10:35:22;466.33;;;432.52;;
50605;SDS011;36557;53.572;10.170;2022-09-20T10:40:44;435.75;;;403.33;;
50605;SDS011;36557;53.572;10.170;2022-09-20T11:08:33;574.30;;;532.30;;
50605;SDS011;36557;53.572;10.170;2022-09-20T11:11:04;547.50;;;509.63;;
50605;SDS011;36557;53.572;10.170;2022-09-20T11:16:19;495.77;;;461.25;;
50605;SDS011;36557;53.572;10.170;2022-09-20T11:19:13;712.22;;;649.67;;
50605;SDS011;36557;53.572;10.170;2022-09-20T11:22:07;564.80;;;523.22;;
50605;SDS011;36557;53.572;10.170;2022-09-20T11:24:45;557.92;;;517.60;;
50605;SDS011;36557;53.572;10.170;2022-09-20T11:27:21;792.40;;;714.80;;
50605;SDS011;36557;53.572;10.170;2022-09-20T11:30:03;697.30;;;633.92;;
50605;SDS011;36557;53.572;10.170;2022-09-20T11:32:40;567.53;;;526.15;;
50605;SDS011;36557;53.572;10.170;2022-09-20T11:37:40;549.25;;;509.48;;
50605;SDS011;36557;53.572;10.170;2022-09-20T11:40:28;557.60;;;517.28;;
50605;SDS011;36557;53.572;10.170;2022-09-20T11:42:59;545.13;;;504.63;;
50605;SDS011;36557;53.572;10.170;2022-09-20T11:45:30;507.95;;;473.02;;
50605;SDS011;36557;53.572;10.170;2022-09-20T11:48:02;492.52;;;457.75;;
50605;SDS011;36557;53.572;10.170;2022-09-20T11:56:28;642.45;;;586.20;;
50605;SDS011;36557;53.572;10.170;2022-09-20T11:59:03;576.88;;;534.50;;
50605;SDS011;36557;53.572;10.170;2022-09-20T12:01:38;593.13;;;548.28;;
50605;SDS011;36557;53.572;10.170;2022-09-20T12:06:39;562.70;;;522.03;;
50605;SDS011;36557;53.572;10.170;2022-09-20T12:09:20;582.17;;;540.25;;
50605;SDS011;36557;53.572;10.170;2022-09-20T12:11:52;561.28;;;521.05;;
50605;SDS011;36557;53.572;10.170;2022-09-20T12:14:21;570.45;;;527.30;;
50605;SDS011;36557;53.572;10.170;2022-09-20T12:16:49;649.80;;;597.03;;
50605;SDS011;36557;53.572;10.170;2022-09-20T12:24:29;553.40;;;514.00;;
50605;SDS011;36557;53.572;10.170;2022-09-20T12:26:56;615.00;;;567.67;;
50605;SDS011;36557;53.572;10.170;2022-09-20T12:31:52;630.92;;;583.42;;
50605;SDS011;36557;53.572;10.170;2022-09-20T12:39:20;549.95;;;506.75;;
50605;SDS011;36557;53.572;10.170;2022-09-20T12:41:57;608.45;;;560.63;;
50605;SDS011;36557;53.572;10.170;2022-09-20T12:49:39;600.42;;;550.88;;
50605;SDS011;36557;53.572;10.170;2022-09-20T13:06:38;528.65;;;488.55;;
50605;SDS011;36557;53.572;10.170;2022-09-20T13:08:55;597.60;;;554.22;;
50605;SDS011;36557;53.572;10.170;2022-09-20T13:14:11;573.45;;;531.30;;
50605;SDS011;36557;53.572;10.170;2022-09-20T13:24:37;633.47;;;583.95;;
50605;SDS011;36557;53.572;10.170;2022-09-20T13:27:17;658.88;;;606.83;;
50605;SDS011;36557;53.572;10.170;2022-09-20T13:29:46;657.88;;;599.17;;
50605;SDS011;36557;53.572;10.170;2022-09-20T13:32:28;684.75;;;622.63;;
50605;SDS011;36557;53.572;10.170;2022-09-20T13:35:17;626.05;;;575.90;;
50605;SDS011;36557;53.572;10.170;2022-09-20T13:42:46;750.72;;;674.22;;
50605;SDS011;36557;53.572;10.170;2022-09-20T13:45:14;890.03;;;793.85;;
50605;SDS011;36557;53.572;10.170;2022-09-20T13:47:43;679.38;;;617.67;;
50605;SDS011;36557;53.572;10.170;2022-09-20T13:50:24;549.63;;;506.35;;
50605;SDS011;36557;53.572;10.170;2022-09-20T13:52:53;543.45;;;499.63;;
50605;SDS011;36557;53.572;10.170;2022-09-20T13:55:21;512.05;;;471.92;;
50605;SDS011;36557;53.572;10.170;2022-09-20T13:57:54;546.53;;;503.73;;
50605;SDS011;36557;53.572;10.170;2022-09-20T14:00:23;565.67;;;519.97;;
50605;SDS011;36557;53.572;10.170;2022-09-20T14:02:50;589.30;;;543.00;;
50605;SDS011;36557;53.572;10.170;2022-09-20T14:05:19;557.20;;;511.98;;
50605;SDS011;36557;53.572;10.170;2022-09-20T14:07:48;492.40;;;455.08;;
50605;SDS011;36557;53.572;10.170;2022-09-20T14:13:13;507.73;;;468.17;;
50605;SDS011;36557;53.572;10.170;2022-09-20T14:15:44;516.22;;;475.80;;
50605;SDS011;36557;53.572;10.170;2022-09-20T14:18:12;649.28;;;588.75;;
50605;SDS011;36557;53.572;10.170;2022-09-20T14:20:42;604.20;;;549.08;;
50605;SDS011;36557;53.572;10.170;2022-09-20T14:23:21;568.65;;;522.65;;
50605;SDS011;36557;53.572;10.170;2022-09-20T14:28:39;533.17;;;491.20;;
50605;SDS011;36557;53.572;10.170;2022-09-20T14:31:27;529.38;;;487.88;;
50605;SDS011;36557;53.572;10.170;2022-09-20T14:33:55;542.58;;;499.65;;
50605;SDS011;36557;53.572;10.170;2022-09-20T14:36:24;530.05;;;488.08;;
50605;SDS011;36557;53.572;10.170;2022-09-20T14:38:53;492.20;;;454.08;;
50605;SDS011;36557;53.572;10.170;2022-09-20T14:41:33;517.13;;;477.17;;
50605;SDS011;36557;53.572;10.170;2022-09-20T14:44:04;457.95;;;423.20;;
50605;SDS011;36557;53.572;10.170;2022-09-20T14:46:41;509.38;;;471.08;;
50605;SDS011;36557;53.572;10.170;2022-09-20T14:51:51;462.60;;;427.15;;
50605;SDS011;36557;53.572;10.170;2022-09-20T14:54:24;561.72;;;512.60;;
50605;SDS011;36557;53.572;10.170;2022-09-20T14:56:54;518.95;;;478.65;;
50605;SDS011;36557;53.572;10.170;2022-09-20T14:59:34;438.08;;;404.92;;
50605;SDS011;36557;53.572;10.170;2022-09-20T15:04:34;442.70;;;409.65;;
50605;SDS011;36557;53.572;10.170;2022-09-20T15:07:05;471.23;;;435.10;;
50605;SDS011;36557;53.572;10.170;2022-09-20T15:09:34;443.92;;;410.25;;
50605;SDS011;36557;53.572;10.170;2022-09-20T15:14:53;512.03;;;472.58;;
50605;SDS011;36557;53.572;10.170;2022-09-20T15:17:19;490.98;;;452.73;;
50605;SDS011;36557;53.572;10.170;2022-09-20T15:19:46;463.33;;;428.55;;
50605;SDS011;36557;53.572;10.170;2022-09-20T15:22:13;497.50;;;459.10;;
50605;SDS011;36557;53.572;10.170;2022-09-20T15:24:40;520.75;;;479.45;;
50605;SDS011;36557;53.572;10.170;2022-09-20T15:27:06;552.88;;;508.65;;
50605;SDS011;36557;53.572;10.170;2022-09-20T15:29:32;445.70;;;412.73;;
50605;SDS011;36557;53.572;10.170;2022-09-20T15:31:57;537.72;;;496.15;;
50605;SDS011;36557;53.572;10.170;2022-09-20T15:34:23;450.88;;;416.17;;
50605;SDS011;36557;53.572;10.170;2022-09-20T15:36:49;485.10;;;447.25;;
50605;SDS011;36557;53.572;10.170;2022-09-20T15:39:15;487.75;;;449.20;;
50605;SDS011;36557;53.572;10.170;2022-09-20T15:41:41;458.20;;;423.33;;
50605;SDS011;36557;53.572;10.170;2022-09-20T15:44:09;417.25;;;386.55;;
50605;SDS011;36557;53.572;10.170;2022-09-20T15:46:35;467.00;;;431.25;;
50605;SDS011;36557;53.572;10.170;2022-09-20T15:49:01;521.08;;;481.17;;
50605;SDS011;36557;53.572;10.170;2022-09-20T15:51:28;409.83;;;380.98;;
50605;SDS011;36557;53.572;10.170;2022-09-20T15:53:56;505.92;;;467.50;;
50605;SDS011;36557;53.572;10.170;2022-09-20T15:56:27;482.80;;;446.45;;
50605;SDS011;36557;53.572;10.170;2022-09-20T15:58:56;433.73;;;402.08;;
50605;SDS011;36557;53.572;10.170;2022-09-20T16:01:44;429.00;;;396.80;;
50605;SDS011;36557;53.572;10.170;2022-09-20T16:04:12;456.17;;;422.40;;
50605;SDS011;36557;53.572;10.170;2022-09-20T16:06:41;454.80;;;421.15;;
50605;SDS011;36557;53.572;10.170;2022-09-20T16:09:08;445.88;;;413.27;;
50605;SDS011;36557;53.572;10.170;2022-09-20T16:11:34;407.98;;;377.95;;
50605;SDS011;36557;53.572;10.170;2022-09-20T16:14:00;490.70;;;453.50;;
50605;SDS011;36557;53.572;10.170;2022-09-20T16:16:27;494.30;;;458.42;;
50605;SDS011;36557;53.572;10.170;2022-09-20T16:18:55;526.63;;;483.95;;
50605;SDS011;36557;53.572;10.170;2022-09-20T16:21:39;496.73;;;459.10;;
50605;SDS011;36557;53.572;10.170;2022-09-20T16:24:06;388.35;;;361.05;;
50605;SDS011;36557;53.572;10.170;2022-09-20T16:26:33;452.40;;;418.48;;
50605;SDS011;36557;53.572;10.170;2022-09-20T16:29:00;438.55;;;406.40;;
50605;SDS011;36557;53.572;10.170;2022-09-20T16:34:05;431.70;;;400.02;;
50605;SDS011;36557;53.572;10.170;2022-09-20T16:36:47;423.48;;;393.80;;
50605;SDS011;36557;53.572;10.170;2022-09-20T16:39:15;476.77;;;441.08;;
50605;SDS011;36557;53.572;10.170;2022-09-20T16:41:42;439.15;;;406.23;;
50605;SDS011;36557;53.572;10.170;2022-09-20T16:44:11;527.85;;;486.75;;
50605;SDS011;36557;53.572;10.170;2022-09-20T16:46:37;529.30;;;488.75;;
50605;SDS011;36557;53.572;10.170;2022-09-20T16:49:04;540.55;;;499.50;;
50605;SDS011;36557;53.572;10.170;2022-09-20T16:51:34;499.08;;;462.65;;
50605;SDS011;36557;53.572;10.170;2022-09-20T16:54:01;490.95;;;457.38;;
50605;SDS011;36557;53.572;10.170;2022-09-20T16:56:32;528.70;;;491.60;;
50605;SDS011;36557;53.572;10.170;2022-09-20T16:58:59;473.38;;;441.00;;
50605;SDS011;36557;53.572;10.170;2022-09-20T17:01:26;504.65;;;468.52;;
50605;SDS011;36557;53.572;10.170;2022-09-20T17:03:52;485.17;;;451.50;;
50605;SDS011;36557;53.572;10.170;2022-09-20T17:06:18;536.13;;;496.50;;
50605;SDS011;36557;53.572;10.170;2022-09-20T17:08:45;527.47;;;488.83;;
50605;SDS011;36557;53.572;10.170;2022-09-20T17:11:14;518.42;;;481.05;;
50605;SDS011;36557;53.572;10.170;2022-09-20T17:13:41;471.67;;;437.75;;
50605;SDS011;36557;53.572;10.170;2022-09-20T17:16:12;501.25;;;464.45;;
50605;SDS011;36557;53.572;10.170;2022-09-20T17:18:51;546.67;;;505.80;;
50605;SDS011;36557;53.572;10.170;2022-09-20T17:21:18;584.83;;;540.13;;
50605;SDS011;36557;53.572;10.170;2022-09-20T17:23:46;517.72;;;478.63;;
50605;SDS011;36557;53.572;10.170;2022-09-20T17:26:15;512.83;;;475.30;;
50605;SDS011;36557;53.572;10.170;2022-09-20T17:28:43;551.17;;;510.65;;
50605;SDS011;36557;53.572;10.170;2022-09-20T17:31:12;535.47;;;496.10;;
50605;SDS011;36557;53.572;10.170;2022-09-20T17:33:39;534.72;;;494.02;;
50605;SDS011;36557;53.572;10.170;2022-09-20T17:36:06;548.67;;;506.85;;
50605;SDS011;36557;53.572;10.170;2022-09-20T17:38:34;574.13;;;529.50;;
50605;SDS011;36557;53.572;10.170;2022-09-20T17:43:32;470.83;;;436.17;;
50605;SDS011;36557;53.572;10.170;2022-09-20T17:46:10;534.95;;;492.88;;
50605;SDS011;36557;53.572;10.170;2022-09-20T17:48:38;524.28;;;482.88;;
50605;SDS011;36557;53.572;10.170;2022-09-20T17:51:05;509.98;;;471.08;;
50605;SDS011;36557;53.572;10.170;2022-09-20T17:53:33;554.95;;;511.42;;
50605;SDS011;36557;53.572;10.170;2022-09-20T17:56:00;544.80;;;501.42;;
50605;SDS011;36557;53.572;10.170;2022-09-20T17:58:26;568.05;;;524.33;;
50605;SDS011;36557;53.572;10.170;2022-09-20T18:00:53;504.38;;;465.50;;
50605;SDS011;36557;53.572;10.170;2022-09-20T18:03:21;528.10;;;487.75;;
50605;SDS011;36557;53.572;10.170;2022-09-20T18:05:48;502.67;;;464.02;;
50605;SDS011;36557;53.572;10.170;2022-09-20T18:08:14;503.70;;;464.33;;
50605;SDS011;36557;53.572;10.170;2022-09-20T18:10:40;511.65;;;472.42;;
50605;SDS011;36557;53.572;10.170;2022-09-20T18:13:06;497.67;;;459.17;;
50605;SDS011;36557;53.572;10.170;2022-09-20T18:15:32;472.67;;;435.67;;
50605;SDS011;36557;53.572;10.170;2022-09-20T18:17:58;481.90;;;444.92;;
50605;SDS011;36557;53.572;10.170;2022-09-20T18:20:24;514.45;;;474.25;;
50605;SDS011;36557;53.572;10.170;2022-09-20T18:22:50;492.00;;;454.15;;
50605;SDS011;36557;53.572;10.170;2022-09-20T18:25:16;497.95;;;459.38;;
50605;SDS011;36557;53.572;10.170;2022-09-20T18:27:42;484.55;;;447.95;;
50605;SDS011;36557;53.572;10.170;2022-09-20T18:30:08;509.33;;;469.60;;
50605;SDS011;36557;53.572;10.170;2022-09-20T18:32:34;485.30;;;449.27;;
50605;SDS011;36557;53.572;10.170;2022-09-20T18:35:00;497.83;;;460.20;;
50605;SDS011;36557;53.572;10.170;2022-09-20T18:37:26;488.20;;;451.40;;
50605;SDS011;36557;53.572;10.170;2022-09-20T18:39:52;515.53;;;476.40;;
50605;SDS011;36557;53.572;10.170;2022-09-20T18:42:18;479.67;;;443.85;;
50605;SDS011;36557;53.572;10.170;2022-09-20T18:44:43;491.45;;;452.42;;
50605;SDS011;36557;53.572;10.170;2022-09-20T18:47:10;494.63;;;456.23;;
50605;SDS011;36557;53.572;10.170;2022-09-20T18:49:35;497.90;;;459.92;;
50605;SDS011;36557;53.572;10.170;2022-09-20T18:52:01;480.60;;;444.58;;
50605;SDS011;36557;53.572;10.170;2022-09-20T18:54:27;487.08;;;450.30;;
50605;SDS011;36557;53.572;10.170;2022-09-20T18:56:57;467.83;;;431.77;;
50605;SDS011;36557;53.572;10.170;2022-09-20T18:59:24;467.67;;;432.15;;
50605;SDS011;36557;53.572;10.170;2022-09-20T19:10:08;490.02;;;452.25;;
50605;SDS011;36557;53.572;10.170;2022-09-20T19:21:20;456.77;;;422.52;;
50605;SDS011;36557;53.572;10.170;2022-09-20T19:24:11;486.48;;;448.50;;
50605;SDS011;36557;53.572;10.170;2022-09-20T19:26:46;498.58;;;459.33;;
50605;SDS011;36557;53.572;10.170;2022-09-20T19:29:22;467.48;;;432.15;;
50605;SDS011;36557;53.572;10.170;2022-09-20T19:31:53;460.75;;;427.60;;
50605;SDS011;36557;53.572;10.170;2022-09-20T19:34:24;507.13;;;467.90;;
50605;SDS011;36557;53.572;10.170;2022-09-20T19:48:11;464.58;;;431.02;;
50605;SDS011;36557;53.572;10.170;2022-09-20T19:50:44;496.17;;;459.25;;
50605;SDS011;36557;53.572;10.170;2022-09-20T19:53:15;451.55;;;419.08;;
50605;SDS011;36557;53.572;10.170;2022-09-20T19:55:44;452.38;;;420.13;;
50605;SDS011;36557;53.572;10.170;2022-09-20T19:58:12;521.60;;;482.80;;
50605;SDS011;36557;53.572;10.170;2022-09-20T20:00:39;517.38;;;478.75;;
50605;SDS011;36557;53.572;10.170;2022-09-20T20:03:08;514.70;;;475.77;;
50605;SDS011;36557;53.572;10.170;2022-09-20T20:05:42;504.50;;;466.63;;
50605;SDS011;36557;53.572;10.170;2022-09-20T20:08:26;505.13;;;467.70;;
50605;SDS011;36557;53.572;10.170;2022-09-20T20:11:27;412.88;;;384.42;;
50605;SDS011;36557;53.572;10.170;2022-09-20T20:19:53;473.92;;;438.50;;
50605;SDS011;36557;53.572;10.170;2022-09-20T20:24:55;394.35;;;367.73;;
50605;SDS011;36557;53.572;10.170;2022-09-20T20:27:21;483.65;;;448.58;;
50605;SDS011;36557;53.572;10.170;2022-09-20T20:29:49;493.58;;;457.13;;
50605;SDS011;36557;53.572;10.170;2022-09-20T20:32:15;485.90;;;450.67;;
50605;SDS011;36557;53.572;10.170;2022-09-20T20:34:40;401.50;;;373.67;;